sensor_id;sensor_type;location;lat;lon;timestamp;temperature;humidity
22112;DHT22;11222;50.872;4.312;2023-06-04T00:00:39;16.50;82.30
22112;DHT22;11222;50.872;4.312;2023-06-04T00:03:05;16.40;82.50
22112;DHT22;11222;50.872;4.312;2023-06-04T00:05:31;16.40;82.70
22112;DHT22;11222;50.872;4.312;2023-06-04T00:07:57;16.40;82.60
22112;DHT22;11222;50.872;4.312;2023-06-04T00:10:22;16.40;82.70
22112;DHT22;11222;50.872;4.312;2023-06-04T00:12:48;16.40;83.00
22112;DHT22;11222;50.872;4.312;2023-06-04T00:15:14;16.30;83.10
22112;DHT22;11222;50.872;4.312;2023-06-04T00:17:43;16.30;83.40
22112;DHT22;11222;50.872;4.312;2023-06-04T00:20:10;16.30;83.80
22112;DHT22;11222;50.872;4.312;2023-06-04T00:22:36;16.20;83.60
22112;DHT22;11222;50.872;4.312;2023-06-04T00:25:02;16.20;84.00
22112;DHT22;11222;50.872;4.312;2023-06-04T00:27:28;16.20;83.80
22112;DHT22;11222;50.872;4.312;2023-06-04T00:29:54;16.30;83.90
22112;DHT22;11222;50.872;4.312;2023-06-04T00:32:20;16.20;84.00
22112;DHT22;11222;50.872;4.312;2023-06-04T00:34:55;16.10;84.50
22112;DHT22;11222;50.872;4.312;2023-06-04T00:37:24;16.00;84.80
22112;DHT22;11222;50.872;4.312;2023-06-04T00:39:50;16.00;85.00
22112;DHT22;11222;50.872;4.312;2023-06-04T00:42:16;15.90;85.20
22112;DHT22;11222;50.872;4.312;2023-06-04T00:44:42;15.90;85.10
22112;DHT22;11222;50.872;4.312;2023-06-04T00:47:13;16.00;85.60
22112;DHT22;11222;50.872;4.312;2023-06-04T00:49:40;16.10;84.80
22112;DHT22;11222;50.872;4.312;2023-06-04T00:52:10;16.00;85.10
22112;DHT22;11222;50.872;4.312;2023-06-04T00:54:37;15.90;85.60
22112;DHT22;11222;50.872;4.312;2023-06-04T00:57:04;15.90;86.10
22112;DHT22;11222;50.872;4.312;2023-06-04T00:59:32;15.70;87.00
22112;DHT22;11222;50.872;4.312;2023-06-04T01:02:06;15.60;87.70
22112;DHT22;11222;50.872;4.312;2023-06-04T01:07:22;15.60;88.80
22112;DHT22;11222;50.872;4.312;2023-06-04T01:09:49;15.60;89.10
22112;DHT22;11222;50.872;4.312;2023-06-04T01:12:16;15.50;89.20
22112;DHT22;11222;50.872;4.312;2023-06-04T01:14:42;15.40;89.50
22112;DHT22;11222;50.872;4.312;2023-06-04T01:19:52;15.20;90.40
22112;DHT22;11222;50.872;4.312;2023-06-04T01:25:15;15.00;91.20
22112;DHT22;11222;50.872;4.312;2023-06-04T01:28:06;14.90;91.60
22112;DHT22;11222;50.872;4.312;2023-06-04T01:30:34;14.90;92.30
22112;DHT22;11222;50.872;4.312;2023-06-04T01:33:00;14.80;92.80
22112;DHT22;11222;50.872;4.312;2023-06-04T01:35:27;14.80;92.80
22112;DHT22;11222;50.872;4.312;2023-06-04T01:37:53;14.90;93.40
22112;DHT22;11222;50.872;4.312;2023-06-04T01:40:20;14.80;93.10
22112;DHT22;11222;50.872;4.312;2023-06-04T01:42:46;14.80;93.70
22112;DHT22;11222;50.872;4.312;2023-06-04T01:45:12;14.80;94.10
22112;DHT22;11222;50.872;4.312;2023-06-04T01:47:37;14.70;94.40
22112;DHT22;11222;50.872;4.312;2023-06-04T01:50:05;14.70;95.20
22112;DHT22;11222;50.872;4.312;2023-06-04T01:52:37;14.70;95.20
22112;DHT22;11222;50.872;4.312;2023-06-04T01:55:07;14.60;95.60
22112;DHT22;11222;50.872;4.312;2023-06-04T01:57:36;14.50;96.30
22112;DHT22;11222;50.872;4.312;2023-06-04T02:00:02;14.40;97.20
22112;DHT22;11222;50.872;4.312;2023-06-04T02:02:29;14.40;98.00
22112;DHT22;11222;50.872;4.312;2023-06-04T02:04:55;14.40;98.50
22112;DHT22;11222;50.872;4.312;2023-06-04T02:07:20;14.40;99.10
22112;DHT22;11222;50.872;4.312;2023-06-04T02:09:47;14.40;99.90
22112;DHT22;11222;50.872;4.312;2023-06-04T02:12:13;14.30;99.90
22112;DHT22;11222;50.872;4.312;2023-06-04T02:14:38;14.30;99.90
22112;DHT22;11222;50.872;4.312;2023-06-04T02:17:05;14.30;99.90
22112;DHT22;11222;50.872;4.312;2023-06-04T02:19:41;14.20;99.90
22112;DHT22;11222;50.872;4.312;2023-06-04T02:22:14;14.20;99.90
22112;DHT22;11222;50.872;4.312;2023-06-04T02:24:40;14.20;99.90
22112;DHT22;11222;50.872;4.312;2023-06-04T02:27:11;14.30;99.90
22112;DHT22;11222;50.872;4.312;2023-06-04T02:29:40;14.30;99.90
22112;DHT22;11222;50.872;4.312;2023-06-04T02:32:07;14.30;99.90
22112;DHT22;11222;50.872;4.312;2023-06-04T02:34:32;14.30;99.90
22112;DHT22;11222;50.872;4.312;2023-06-04T02:37:00;14.30;99.90
22112;DHT22;11222;50.872;4.312;2023-06-04T02:39:25;14.30;99.90
22112;DHT22;11222;50.872;4.312;2023-06-04T02:41:51;14.20;99.90
22112;DHT22;11222;50.872;4.312;2023-06-04T02:44:16;14.20;99.90
22112;DHT22;11222;50.872;4.312;2023-06-04T02:46:43;14.20;99.90
22112;DHT22;11222;50.872;4.312;2023-06-04T02:49:10;14.20;99.90
22112;DHT22;11222;50.872;4.312;2023-06-04T02:51:39;14.10;99.90
22112;DHT22;11222;50.872;4.312;2023-06-04T02:54:05;14.20;99.90
22112;DHT22;11222;50.872;4.312;2023-06-04T02:56:30;14.10;99.90
22112;DHT22;11222;50.872;4.312;2023-06-04T02:58:56;14.10;99.90
22112;DHT22;11222;50.872;4.312;2023-06-04T03:01:26;14.10;99.90
22112;DHT22;11222;50.872;4.312;2023-06-04T03:03:55;13.90;99.90
22112;DHT22;11222;50.872;4.312;2023-06-04T03:06:22;13.80;99.90
22112;DHT22;11222;50.872;4.312;2023-06-04T03:08:51;13.90;99.90
22112;DHT22;11222;50.872;4.312;2023-06-04T03:11:20;13.90;99.90
22112;DHT22;11222;50.872;4.312;2023-06-04T03:13:49;13.90;99.90
22112;DHT22;11222;50.872;4.312;2023-06-04T03:16:15;13.80;99.90
22112;DHT22;11222;50.872;4.312;2023-06-04T03:18:41;13.80;99.90
22112;DHT22;11222;50.872;4.312;2023-06-04T03:21:07;13.80;99.90
22112;DHT22;11222;50.872;4.312;2023-06-04T03:23:34;13.80;99.90
22112;DHT22;11222;50.872;4.312;2023-06-04T03:26:03;13.70;99.90
22112;DHT22;11222;50.872;4.312;2023-06-04T03:28:30;13.70;99.90
22112;DHT22;11222;50.872;4.312;2023-06-04T03:30:56;13.80;99.90
22112;DHT22;11222;50.872;4.312;2023-06-04T03:33:23;13.80;99.90
22112;DHT22;11222;50.872;4.312;2023-06-04T03:35:49;13.80;99.90
22112;DHT22;11222;50.872;4.312;2023-06-04T03:38:15;13.70;99.90
22112;DHT22;11222;50.872;4.312;2023-06-04T03:40:41;13.60;99.90
22112;DHT22;11222;50.872;4.312;2023-06-04T03:43:06;13.50;99.90
22112;DHT22;11222;50.872;4.312;2023-06-04T03:45:32;13.40;99.90
22112;DHT22;11222;50.872;4.312;2023-06-04T03:47:58;13.50;99.90
22112;DHT22;11222;50.872;4.312;2023-06-04T03:50:23;13.40;99.90
22112;DHT22;11222;50.872;4.312;2023-06-04T03:52:49;13.50;99.90
22112;DHT22;11222;50.872;4.312;2023-06-04T03:55:15;13.50;99.90
22112;DHT22;11222;50.872;4.312;2023-06-04T03:57:41;13.60;99.90
22112;DHT22;11222;50.872;4.312;2023-06-04T04:00:10;13.70;99.90
22112;DHT22;11222;50.872;4.312;2023-06-04T04:02:41;13.70;99.90
22112;DHT22;11222;50.872;4.312;2023-06-04T04:05:08;13.60;99.90
22112;DHT22;11222;50.872;4.312;2023-06-04T04:07:34;13.60;99.90
22112;DHT22;11222;50.872;4.312;2023-06-04T04:10:00;13.60;99.90
22112;DHT22;11222;50.872;4.312;2023-06-04T04:12:26;13.70;99.90
22112;DHT22;11222;50.872;4.312;2023-06-04T04:14:52;13.70;99.90
22112;DHT22;11222;50.872;4.312;2023-06-04T04:17:17;13.80;99.90
22112;DHT22;11222;50.872;4.312;2023-06-04T04:19:43;13.90;99.90
22112;DHT22;11222;50.872;4.312;2023-06-04T04:22:10;14.20;99.90
22112;DHT22;11222;50.872;4.312;2023-06-04T04:24:36;14.70;99.90
22112;DHT22;11222;50.872;4.312;2023-06-04T04:27:03;15.20;99.90
22112;DHT22;11222;50.872;4.312;2023-06-04T04:29:30;15.60;99.90
22112;DHT22;11222;50.872;4.312;2023-06-04T04:32:01;15.90;99.90
22112;DHT22;11222;50.872;4.312;2023-06-04T04:34:50;16.00;99.90
22112;DHT22;11222;50.872;4.312;2023-06-04T04:37:19;15.70;99.90
22112;DHT22;11222;50.872;4.312;2023-06-04T04:39:47;15.80;99.90
22112;DHT22;11222;50.872;4.312;2023-06-04T04:42:15;15.90;99.90
22112;DHT22;11222;50.872;4.312;2023-06-04T04:44:40;16.40;99.90
22112;DHT22;11222;50.872;4.312;2023-06-04T04:47:06;16.70;99.90
22112;DHT22;11222;50.872;4.312;2023-06-04T04:49:32;16.80;99.90
22112;DHT22;11222;50.872;4.312;2023-06-04T04:51:57;17.00;99.90
22112;DHT22;11222;50.872;4.312;2023-06-04T04:54:23;16.90;99.90
22112;DHT22;11222;50.872;4.312;2023-06-04T04:56:49;16.60;99.90
22112;DHT22;11222;50.872;4.312;2023-06-04T04:59:14;15.80;99.90
22112;DHT22;11222;50.872;4.312;2023-06-04T05:01:40;15.60;99.90
22112;DHT22;11222;50.872;4.312;2023-06-04T05:04:05;15.20;99.90
22112;DHT22;11222;50.872;4.312;2023-06-04T05:06:31;15.10;99.90
22112;DHT22;11222;50.872;4.312;2023-06-04T05:08:57;14.70;99.90
22112;DHT22;11222;50.872;4.312;2023-06-04T05:11:22;14.60;99.90
22112;DHT22;11222;50.872;4.312;2023-06-04T05:13:48;14.60;99.90
22112;DHT22;11222;50.872;4.312;2023-06-04T05:16:14;14.60;99.90
22112;DHT22;11222;50.872;4.312;2023-06-04T05:18:41;14.60;99.90
22112;DHT22;11222;50.872;4.312;2023-06-04T05:21:07;14.70;99.90
22112;DHT22;11222;50.872;4.312;2023-06-04T05:23:33;14.70;99.90
22112;DHT22;11222;50.872;4.312;2023-06-04T05:26:03;14.80;99.90
22112;DHT22;11222;50.872;4.312;2023-06-04T05:28:28;14.70;99.90
22112;DHT22;11222;50.872;4.312;2023-06-04T05:30:54;14.50;99.90
22112;DHT22;11222;50.872;4.312;2023-06-04T05:33:28;14.60;99.90
22112;DHT22;11222;50.872;4.312;2023-06-04T05:35:56;14.60;99.90
22112;DHT22;11222;50.872;4.312;2023-06-04T05:38:25;14.70;99.90
22112;DHT22;11222;50.872;4.312;2023-06-04T05:40:56;14.80;99.90
22112;DHT22;11222;50.872;4.312;2023-06-04T05:43:22;14.70;99.90
22112;DHT22;11222;50.872;4.312;2023-06-04T05:45:48;14.70;99.90
22112;DHT22;11222;50.872;4.312;2023-06-04T05:48:14;14.80;99.90
22112;DHT22;11222;50.872;4.312;2023-06-04T05:50:40;14.90;99.90
22112;DHT22;11222;50.872;4.312;2023-06-04T05:53:05;14.90;99.90
22112;DHT22;11222;50.872;4.312;2023-06-04T05:55:31;14.80;99.90
22112;DHT22;11222;50.872;4.312;2023-06-04T05:57:57;14.80;99.90
22112;DHT22;11222;50.872;4.312;2023-06-04T06:00:23;15.10;99.90
22112;DHT22;11222;50.872;4.312;2023-06-04T06:02:52;15.00;99.90
22112;DHT22;11222;50.872;4.312;2023-06-04T06:05:19;15.00;99.90
22112;DHT22;11222;50.872;4.312;2023-06-04T06:07:46;15.20;99.90
22112;DHT22;11222;50.872;4.312;2023-06-04T06:10:12;15.10;99.90
22112;DHT22;11222;50.872;4.312;2023-06-04T06:12:39;15.10;99.90
22112;DHT22;11222;50.872;4.312;2023-06-04T06:15:05;15.20;99.90
22112;DHT22;11222;50.872;4.312;2023-06-04T06:17:32;15.10;99.90
22112;DHT22;11222;50.872;4.312;2023-06-04T06:19:58;15.00;99.90
22112;DHT22;11222;50.872;4.312;2023-06-04T06:22:24;15.10;99.90
22112;DHT22;11222;50.872;4.312;2023-06-04T06:24:50;15.20;99.90
22112;DHT22;11222;50.872;4.312;2023-06-04T06:27:16;15.30;99.90
22112;DHT22;11222;50.872;4.312;2023-06-04T06:29:42;15.30;99.90
22112;DHT22;11222;50.872;4.312;2023-06-04T06:32:08;15.30;99.90
22112;DHT22;11222;50.872;4.312;2023-06-04T06:34:34;15.50;99.90
22112;DHT22;11222;50.872;4.312;2023-06-04T06:37:00;15.70;99.90
22112;DHT22;11222;50.872;4.312;2023-06-04T06:39:26;15.80;99.90
22112;DHT22;11222;50.872;4.312;2023-06-04T06:41:51;15.90;99.90
22112;DHT22;11222;50.872;4.312;2023-06-04T06:44:17;15.90;99.90
22112;DHT22;11222;50.872;4.312;2023-06-04T06:46:43;15.80;99.90
22112;DHT22;11222;50.872;4.312;2023-06-04T06:49:09;15.90;99.90
22112;DHT22;11222;50.872;4.312;2023-06-04T06:51:35;16.00;99.90
22112;DHT22;11222;50.872;4.312;2023-06-04T06:54:00;16.00;99.90
22112;DHT22;11222;50.872;4.312;2023-06-04T06:56:26;16.10;99.90
22112;DHT22;11222;50.872;4.312;2023-06-04T06:58:52;16.30;99.90
22112;DHT22;11222;50.872;4.312;2023-06-04T07:01:17;16.40;99.90
22112;DHT22;11222;50.872;4.312;2023-06-04T07:03:43;16.70;99.90
22112;DHT22;11222;50.872;4.312;2023-06-04T07:06:09;17.00;99.90
22112;DHT22;11222;50.872;4.312;2023-06-04T07:08:35;17.20;99.90
22112;DHT22;11222;50.872;4.312;2023-06-04T07:11:03;17.30;99.90
22112;DHT22;11222;50.872;4.312;2023-06-04T07:13:29;17.40;99.90
22112;DHT22;11222;50.872;4.312;2023-06-04T07:15:58;17.70;99.90
22112;DHT22;11222;50.872;4.312;2023-06-04T07:18:24;18.10;99.90
22112;DHT22;11222;50.872;4.312;2023-06-04T07:20:50;18.70;99.90
22112;DHT22;11222;50.872;4.312;2023-06-04T07:23:18;19.10;99.90
22112;DHT22;11222;50.872;4.312;2023-06-04T07:25:44;19.20;99.90
22112;DHT22;11222;50.872;4.312;2023-06-04T07:28:09;19.40;99.90
22112;DHT22;11222;50.872;4.312;2023-06-04T07:30:35;20.50;99.90
22112;DHT22;11222;50.872;4.312;2023-06-04T07:33:02;21.50;99.90
22112;DHT22;11222;50.872;4.312;2023-06-04T07:35:28;21.70;99.90
22112;DHT22;11222;50.872;4.312;2023-06-04T07:37:53;22.60;99.90
22112;DHT22;11222;50.872;4.312;2023-06-04T07:40:19;22.60;99.40
22112;DHT22;11222;50.872;4.312;2023-06-04T07:42:46;22.50;98.30
22112;DHT22;11222;50.872;4.312;2023-06-04T07:45:14;22.90;98.00
22112;DHT22;11222;50.872;4.312;2023-06-04T07:47:42;23.60;95.10
22112;DHT22;11222;50.872;4.312;2023-06-04T07:50:08;23.40;94.50
22112;DHT22;11222;50.872;4.312;2023-06-04T07:52:34;24.20;93.10
22112;DHT22;11222;50.872;4.312;2023-06-04T07:55:01;24.00;92.20
22112;DHT22;11222;50.872;4.312;2023-06-04T07:57:27;24.10;92.00
22112;DHT22;11222;50.872;4.312;2023-06-04T07:59:52;23.30;91.30
22112;DHT22;11222;50.872;4.312;2023-06-04T08:02:18;22.10;92.40
22112;DHT22;11222;50.872;4.312;2023-06-04T08:04:44;22.90;92.20
22112;DHT22;11222;50.872;4.312;2023-06-04T08:07:12;22.90;92.00
22112;DHT22;11222;50.872;4.312;2023-06-04T08:09:38;23.00;91.40
22112;DHT22;11222;50.872;4.312;2023-06-04T08:12:04;23.70;90.70
22112;DHT22;11222;50.872;4.312;2023-06-04T08:14:29;24.00;88.70
22112;DHT22;11222;50.872;4.312;2023-06-04T08:16:55;24.50;86.60
22112;DHT22;11222;50.872;4.312;2023-06-04T08:19:21;24.80;84.50
22112;DHT22;11222;50.872;4.312;2023-06-04T08:21:47;24.80;83.20
22112;DHT22;11222;50.872;4.312;2023-06-04T08:24:13;25.20;82.50
22112;DHT22;11222;50.872;4.312;2023-06-04T08:26:39;25.20;82.40
22112;DHT22;11222;50.872;4.312;2023-06-04T08:29:05;24.20;82.30
22112;DHT22;11222;50.872;4.312;2023-06-04T08:31:31;23.70;82.80
22112;DHT22;11222;50.872;4.312;2023-06-04T08:33:57;23.00;84.00
22112;DHT22;11222;50.872;4.312;2023-06-04T08:36:22;23.80;82.90
22112;DHT22;11222;50.872;4.312;2023-06-04T08:38:48;23.20;83.30
22112;DHT22;11222;50.872;4.312;2023-06-04T08:43:47;23.70;81.50
22112;DHT22;11222;50.872;4.312;2023-06-04T08:46:16;25.00;80.00
22112;DHT22;11222;50.872;4.312;2023-06-04T08:48:43;24.90;79.10
22112;DHT22;11222;50.872;4.312;2023-06-04T08:51:11;24.70;78.00
22112;DHT22;11222;50.872;4.312;2023-06-04T08:53:37;24.20;78.90
22112;DHT22;11222;50.872;4.312;2023-06-04T08:56:03;24.30;79.50
22112;DHT22;11222;50.872;4.312;2023-06-04T08:58:31;24.70;77.20
22112;DHT22;11222;50.872;4.312;2023-06-04T09:01:00;25.30;77.30
22112;DHT22;11222;50.872;4.312;2023-06-04T09:03:26;26.20;74.90
22112;DHT22;11222;50.872;4.312;2023-06-04T09:05:52;25.00;75.70
22112;DHT22;11222;50.872;4.312;2023-06-04T09:08:21;24.90;75.90
22112;DHT22;11222;50.872;4.312;2023-06-04T09:10:50;24.80;76.50
22112;DHT22;11222;50.872;4.312;2023-06-04T09:13:18;25.30;75.40
22112;DHT22;11222;50.872;4.312;2023-06-04T09:15:44;26.60;72.60
22112;DHT22;11222;50.872;4.312;2023-06-04T09:18:11;25.50;73.70
22112;DHT22;11222;50.872;4.312;2023-06-04T09:20:38;27.30;71.10
22112;DHT22;11222;50.872;4.312;2023-06-04T09:23:13;27.20;69.60
22112;DHT22;11222;50.872;4.312;2023-06-04T09:25:42;27.60;69.80
22112;DHT22;11222;50.872;4.312;2023-06-04T09:28:09;28.30;65.50
22112;DHT22;11222;50.872;4.312;2023-06-04T09:30:35;28.60;64.10
22112;DHT22;11222;50.872;4.312;2023-06-04T09:33:10;29.50;62.60
22112;DHT22;11222;50.872;4.312;2023-06-04T09:35:37;28.70;60.90
22112;DHT22;11222;50.872;4.312;2023-06-04T09:38:05;26.70;63.30
22112;DHT22;11222;50.872;4.312;2023-06-04T09:40:37;26.70;63.50
22112;DHT22;11222;50.872;4.312;2023-06-04T09:43:03;25.80;64.30
22112;DHT22;11222;50.872;4.312;2023-06-04T09:45:35;26.00;66.10
22112;DHT22;11222;50.872;4.312;2023-06-04T09:48:02;25.90;66.40
22112;DHT22;11222;50.872;4.312;2023-06-04T09:50:31;27.30;64.60
22112;DHT22;11222;50.872;4.312;2023-06-04T09:53:00;28.90;61.30
22112;DHT22;11222;50.872;4.312;2023-06-04T09:55:28;28.60;59.60
22112;DHT22;11222;50.872;4.312;2023-06-04T09:57:54;28.90;60.30
22112;DHT22;11222;50.872;4.312;2023-06-04T10:00:21;29.10;58.20
22112;DHT22;11222;50.872;4.312;2023-06-04T10:02:49;28.30;58.30
22112;DHT22;11222;50.872;4.312;2023-06-04T10:05:15;28.50;58.70
22112;DHT22;11222;50.872;4.312;2023-06-04T10:07:43;29.10;57.40
22112;DHT22;11222;50.872;4.312;2023-06-04T10:10:25;27.70;58.50
22112;DHT22;11222;50.872;4.312;2023-06-04T10:13:00;27.20;58.70
22112;DHT22;11222;50.872;4.312;2023-06-04T10:15:29;26.50;59.90
22112;DHT22;11222;50.872;4.312;2023-06-04T10:17:58;27.50;60.40
22112;DHT22;11222;50.872;4.312;2023-06-04T10:20:24;28.60;59.00
22112;DHT22;11222;50.872;4.312;2023-06-04T10:22:50;29.10;57.70
22112;DHT22;11222;50.872;4.312;2023-06-04T10:25:16;30.10;55.90
22112;DHT22;11222;50.872;4.312;2023-06-04T10:27:43;31.10;54.90
22112;DHT22;11222;50.872;4.312;2023-06-04T10:30:09;30.90;54.70
22112;DHT22;11222;50.872;4.312;2023-06-04T10:32:35;28.40;54.40
22112;DHT22;11222;50.872;4.312;2023-06-04T10:35:04;27.20;56.10
22112;DHT22;11222;50.872;4.312;2023-06-04T10:37:33;26.60;57.50
22112;DHT22;11222;50.872;4.312;2023-06-04T10:39:59;25.70;59.30
22112;DHT22;11222;50.872;4.312;2023-06-04T10:42:25;25.90;59.00
22112;DHT22;11222;50.872;4.312;2023-06-04T10:44:53;27.60;57.70
22112;DHT22;11222;50.872;4.312;2023-06-04T10:49:45;26.50;57.20
22112;DHT22;11222;50.872;4.312;2023-06-04T10:52:11;26.50;57.00
22112;DHT22;11222;50.872;4.312;2023-06-04T10:54:37;26.70;55.90
22112;DHT22;11222;50.872;4.312;2023-06-04T10:57:13;26.20;57.20
22112;DHT22;11222;50.872;4.312;2023-06-04T10:59:39;27.00;56.30
22112;DHT22;11222;50.872;4.312;2023-06-04T11:02:07;26.90;56.10
22112;DHT22;11222;50.872;4.312;2023-06-04T11:04:36;27.40;55.20
22112;DHT22;11222;50.872;4.312;2023-06-04T11:07:08;27.00;54.90
22112;DHT22;11222;50.872;4.312;2023-06-04T11:09:48;27.20;55.10
22112;DHT22;11222;50.872;4.312;2023-06-04T11:12:14;27.00;55.30
22112;DHT22;11222;50.872;4.312;2023-06-04T11:14:40;26.70;54.90
22112;DHT22;11222;50.872;4.312;2023-06-04T11:17:09;27.10;54.50
22112;DHT22;11222;50.872;4.312;2023-06-04T11:19:37;28.70;54.10
22112;DHT22;11222;50.872;4.312;2023-06-04T11:22:07;28.60;53.70
22112;DHT22;11222;50.872;4.312;2023-06-04T11:24:36;29.00;54.50
22112;DHT22;11222;50.872;4.312;2023-06-04T11:27:01;29.40;53.20
22112;DHT22;11222;50.872;4.312;2023-06-04T11:29:28;29.20;53.30
22112;DHT22;11222;50.872;4.312;2023-06-04T11:31:54;27.30;55.50
22112;DHT22;11222;50.872;4.312;2023-06-04T11:34:27;26.90;56.10
22112;DHT22;11222;50.872;4.312;2023-06-04T11:36:53;27.50;54.70
22112;DHT22;11222;50.872;4.312;2023-06-04T11:39:19;27.40;55.10
22112;DHT22;11222;50.872;4.312;2023-06-04T11:41:46;28.10;54.30
22112;DHT22;11222;50.872;4.312;2023-06-04T11:44:12;31.00;50.90
22112;DHT22;11222;50.872;4.312;2023-06-04T11:46:42;29.20;51.20
22112;DHT22;11222;50.872;4.312;2023-06-04T11:49:18;28.30;53.10
22112;DHT22;11222;50.872;4.312;2023-06-04T11:51:52;28.90;52.50
22112;DHT22;11222;50.872;4.312;2023-06-04T11:54:19;29.60;52.70
22112;DHT22;11222;50.872;4.312;2023-06-04T11:56:48;28.00;52.50
22112;DHT22;11222;50.872;4.312;2023-06-04T11:59:15;27.00;53.80
22112;DHT22;11222;50.872;4.312;2023-06-04T12:01:42;26.80;55.10
22112;DHT22;11222;50.872;4.312;2023-06-04T12:04:18;25.50;57.10
22112;DHT22;11222;50.872;4.312;2023-06-04T12:06:54;24.60;57.10
22112;DHT22;11222;50.872;4.312;2023-06-04T12:09:23;24.40;57.10
22112;DHT22;11222;50.872;4.312;2023-06-04T12:11:49;24.20;57.70
22112;DHT22;11222;50.872;4.312;2023-06-04T12:14:18;24.50;57.30
22112;DHT22;11222;50.872;4.312;2023-06-04T12:17:00;24.40;57.90
22112;DHT22;11222;50.872;4.312;2023-06-04T12:19:27;24.20;58.40
22112;DHT22;11222;50.872;4.312;2023-06-04T12:22:03;24.30;58.30
22112;DHT22;11222;50.872;4.312;2023-06-04T12:24:31;24.50;58.40
22112;DHT22;11222;50.872;4.312;2023-06-04T12:27:10;24.80;58.70
22112;DHT22;11222;50.872;4.312;2023-06-04T12:29:37;24.80;58.60
22112;DHT22;11222;50.872;4.312;2023-06-04T12:32:06;24.80;58.40
22112;DHT22;11222;50.872;4.312;2023-06-04T12:34:39;24.40;58.50
22112;DHT22;11222;50.872;4.312;2023-06-04T12:37:06;24.00;59.90
22112;DHT22;11222;50.872;4.312;2023-06-04T12:39:32;24.30;58.50
22112;DHT22;11222;50.872;4.312;2023-06-04T12:41:59;24.50;58.70
22112;DHT22;11222;50.872;4.312;2023-06-04T12:44:24;24.60;57.80
22112;DHT22;11222;50.872;4.312;2023-06-04T12:46:50;24.50;58.80
22112;DHT22;11222;50.872;4.312;2023-06-04T12:49:16;24.30;58.40
22112;DHT22;11222;50.872;4.312;2023-06-04T12:51:42;24.30;58.80
22112;DHT22;11222;50.872;4.312;2023-06-04T12:54:08;24.10;58.60
22112;DHT22;11222;50.872;4.312;2023-06-04T12:56:34;24.10;58.80
22112;DHT22;11222;50.872;4.312;2023-06-04T12:59:00;24.20;58.90
22112;DHT22;11222;50.872;4.312;2023-06-04T13:01:26;23.80;59.90
22112;DHT22;11222;50.872;4.312;2023-06-04T13:03:52;23.90;59.70
22112;DHT22;11222;50.872;4.312;2023-06-04T13:06:17;23.80;59.60
22112;DHT22;11222;50.872;4.312;2023-06-04T13:08:43;24.00;59.00
22112;DHT22;11222;50.872;4.312;2023-06-04T13:11:09;24.20;59.20
22112;DHT22;11222;50.872;4.312;2023-06-04T13:13:36;24.40;59.10
22112;DHT22;11222;50.872;4.312;2023-06-04T13:16:04;24.30;58.80
22112;DHT22;11222;50.872;4.312;2023-06-04T13:18:30;24.30;59.50
22112;DHT22;11222;50.872;4.312;2023-06-04T13:20:56;24.20;58.90
22112;DHT22;11222;50.872;4.312;2023-06-04T13:23:22;24.30;59.60
22112;DHT22;11222;50.872;4.312;2023-06-04T13:25:48;24.50;58.80
22112;DHT22;11222;50.872;4.312;2023-06-04T13:28:13;24.60;58.30
22112;DHT22;11222;50.872;4.312;2023-06-04T13:30:41;24.50;58.40
22112;DHT22;11222;50.872;4.312;2023-06-04T13:33:08;24.60;57.50
22112;DHT22;11222;50.872;4.312;2023-06-04T13:35:34;24.10;58.60
22112;DHT22;11222;50.872;4.312;2023-06-04T13:38:02;24.20;57.80
22112;DHT22;11222;50.872;4.312;2023-06-04T13:40:27;24.30;57.30
22112;DHT22;11222;50.872;4.312;2023-06-04T13:42:53;24.50;57.40
22112;DHT22;11222;50.872;4.312;2023-06-04T13:45:19;24.20;58.00
22112;DHT22;11222;50.872;4.312;2023-06-04T13:47:46;24.20;58.10
22112;DHT22;11222;50.872;4.312;2023-06-04T13:50:13;24.10;57.70
22112;DHT22;11222;50.872;4.312;2023-06-04T13:52:39;24.20;57.00
22112;DHT22;11222;50.872;4.312;2023-06-04T13:55:05;24.30;57.40
22112;DHT22;11222;50.872;4.312;2023-06-04T13:57:31;24.30;56.90
22112;DHT22;11222;50.872;4.312;2023-06-04T13:59:57;24.50;57.30
22112;DHT22;11222;50.872;4.312;2023-06-04T14:02:22;24.40;56.60
22112;DHT22;11222;50.872;4.312;2023-06-04T14:04:50;24.40;56.70
22112;DHT22;11222;50.872;4.312;2023-06-04T14:07:16;24.50;57.30
22112;DHT22;11222;50.872;4.312;2023-06-04T14:09:42;24.40;56.50
22112;DHT22;11222;50.872;4.312;2023-06-04T14:12:08;24.50;57.20
22112;DHT22;11222;50.872;4.312;2023-06-04T14:14:35;24.20;56.40
22112;DHT22;11222;50.872;4.312;2023-06-04T14:17:04;24.10;57.90
22112;DHT22;11222;50.872;4.312;2023-06-04T14:19:30;24.30;57.70
22112;DHT22;11222;50.872;4.312;2023-06-04T14:21:56;24.50;57.10
22112;DHT22;11222;50.872;4.312;2023-06-04T14:24:22;24.70;56.80
22112;DHT22;11222;50.872;4.312;2023-06-04T14:26:47;24.50;57.70
22112;DHT22;11222;50.872;4.312;2023-06-04T14:29:13;24.40;56.80
22112;DHT22;11222;50.872;4.312;2023-06-04T14:31:39;24.50;56.90
22112;DHT22;11222;50.872;4.312;2023-06-04T14:34:06;24.50;57.40
22112;DHT22;11222;50.872;4.312;2023-06-04T14:36:33;24.70;56.30
22112;DHT22;11222;50.872;4.312;2023-06-04T14:38:58;24.70;56.90
22112;DHT22;11222;50.872;4.312;2023-06-04T14:41:24;24.90;56.40
22112;DHT22;11222;50.872;4.312;2023-06-04T14:43:50;25.00;55.80
22112;DHT22;11222;50.872;4.312;2023-06-04T14:46:16;25.10;56.10
22112;DHT22;11222;50.872;4.312;2023-06-04T14:48:42;24.90;55.80
22112;DHT22;11222;50.872;4.312;2023-06-04T14:51:08;24.70;54.60
22112;DHT22;11222;50.872;4.312;2023-06-04T14:53:33;24.50;55.80
22112;DHT22;11222;50.872;4.312;2023-06-04T14:55:59;24.80;56.00
22112;DHT22;11222;50.872;4.312;2023-06-04T14:58:25;24.80;55.50
22112;DHT22;11222;50.872;4.312;2023-06-04T15:00:51;24.60;56.10
22112;DHT22;11222;50.872;4.312;2023-06-04T15:03:18;24.30;56.30
22112;DHT22;11222;50.872;4.312;2023-06-04T15:05:48;24.20;56.00
22112;DHT22;11222;50.872;4.312;2023-06-04T15:08:13;24.20;55.90
22112;DHT22;11222;50.872;4.312;2023-06-04T15:10:39;24.40;56.50
22112;DHT22;11222;50.872;4.312;2023-06-04T15:13:05;24.30;55.80
22112;DHT22;11222;50.872;4.312;2023-06-04T15:15:32;24.10;55.80
22112;DHT22;11222;50.872;4.312;2023-06-04T15:17:57;24.10;55.50
22112;DHT22;11222;50.872;4.312;2023-06-04T15:20:23;24.20;56.30
22112;DHT22;11222;50.872;4.312;2023-06-04T15:22:50;24.10;55.80
22112;DHT22;11222;50.872;4.312;2023-06-04T15:25:16;24.30;56.10
22112;DHT22;11222;50.872;4.312;2023-06-04T15:27:42;24.30;55.50
22112;DHT22;11222;50.872;4.312;2023-06-04T15:30:08;24.40;55.70
22112;DHT22;11222;50.872;4.312;2023-06-04T15:32:34;24.50;56.30
22112;DHT22;11222;50.872;4.312;2023-06-04T15:34:59;24.80;56.10
22112;DHT22;11222;50.872;4.312;2023-06-04T15:37:27;25.00;56.40
22112;DHT22;11222;50.872;4.312;2023-06-04T15:39:52;25.00;55.90
22112;DHT22;11222;50.872;4.312;2023-06-04T15:42:18;25.00;56.00